sensor_id;sensor_type;location;lat;lon;timestamp;pressure;altitude;pressure_sealevel;temperature
69545;BMP180;56766;52.260;20.746;2023-03-24T00:01:14;99714.00;;;9.30
69545;BMP180;56766;52.260;20.746;2023-03-24T00:03:41;99714.00;;;9.30
69545;BMP180;56766;52.260;20.746;2023-03-24T00:06:12;99719.60;;;9.30
69545;BMP180;56766;52.260;20.746;2023-03-24T00:08:40;99719.20;;;9.20
69545;BMP180;56766;52.260;20.746;2023-03-24T00:11:10;99716.20;;;9.12
69545;BMP180;56766;52.260;20.746;2023-03-24T00:13:38;99716.20;;;9.10
69545;BMP180;56766;52.260;20.746;2023-03-24T00:16:14;99722.00;;;9.00
69545;BMP180;56766;52.260;20.746;2023-03-24T00:18:42;99725.20;;;9.00
69545;BMP180;56766;52.260;20.746;2023-03-24T00:21:08;99726.80;;;8.90
69545;BMP180;56766;52.260;20.746;2023-03-24T00:23:37;99726.80;;;8.90
69545;BMP180;56766;52.260;20.746;2023-03-24T00:26:12;99728.80;;;8.80
69545;BMP180;56766;52.260;20.746;2023-03-24T00:28:47;99732.40;;;8.80
69545;BMP180;56766;52.260;20.746;2023-03-24T00:31:16;99733.60;;;8.70
69545;BMP180;56766;52.260;20.746;2023-03-24T00:33:46;99724.40;;;8.70
69545;BMP180;56766;52.260;20.746;2023-03-24T00:36:19;99719.40;;;8.60
69545;BMP180;56766;52.260;20.746;2023-03-24T00:38:46;99724.40;;;8.60
69545;BMP180;56766;52.260;20.746;2023-03-24T00:41:13;99717.80;;;8.50
69545;BMP180;56766;52.260;20.746;2023-03-24T00:43:43;99713.20;;;8.50
69545;BMP180;56766;52.260;20.746;2023-03-24T00:46:13;99710.60;;;8.44
69545;BMP180;56766;52.260;20.746;2023-03-24T00:49:00;99711.20;;;8.40
69545;BMP180;56766;52.260;20.746;2023-03-24T00:51:40;99712.00;;;8.40
69545;BMP180;56766;52.260;20.746;2023-03-24T00:54:11;99712.60;;;8.30
69545;BMP180;56766;52.260;20.746;2023-03-24T00:56:40;99708.20;;;8.20
69545;BMP180;56766;52.260;20.746;2023-03-24T00:59:09;99711.00;;;8.20
69545;BMP180;56766;52.260;20.746;2023-03-24T01:01:37;99703.20;;;8.20
69545;BMP180;56766;52.260;20.746;2023-03-24T01:04:06;99701.20;;;8.10
69545;BMP180;56766;52.260;20.746;2023-03-24T01:06:35;99703.60;;;8.00
69545;BMP180;56766;52.260;20.746;2023-03-24T01:09:04;99700.40;;;8.00
69545;BMP180;56766;52.260;20.746;2023-03-24T01:11:38;99694.20;;;7.90
69545;BMP180;56766;52.260;20.746;2023-03-24T01:14:08;99690.80;;;7.80
69545;BMP180;56766;52.260;20.746;2023-03-24T01:16:35;99695.80;;;7.80
69545;BMP180;56766;52.260;20.746;2023-03-24T01:19:03;99695.60;;;7.74
69545;BMP180;56766;52.260;20.746;2023-03-24T01:21:30;99691.60;;;7.70
69545;BMP180;56766;52.260;20.746;2023-03-24T01:23:57;99687.60;;;7.70
69545;BMP180;56766;52.260;20.746;2023-03-24T01:26:23;99690.60;;;7.60
69545;BMP180;56766;52.260;20.746;2023-03-24T01:28:50;99687.60;;;7.60
69545;BMP180;56766;52.260;20.746;2023-03-24T01:31:16;99695.20;;;7.54
69545;BMP180;56766;52.260;20.746;2023-03-24T01:33:43;99694.20;;;7.50
69545;BMP180;56766;52.260;20.746;2023-03-24T01:36:10;99691.40;;;7.50
69545;BMP180;56766;52.260;20.746;2023-03-24T01:38:37;99691.20;;;7.40
69545;BMP180;56766;52.260;20.746;2023-03-24T01:41:05;99692.00;;;7.40
69545;BMP180;56766;52.260;20.746;2023-03-24T01:43:34;99686.80;;;7.30
69545;BMP180;56766;52.260;20.746;2023-03-24T01:46:04;99685.00;;;7.30
69545;BMP180;56766;52.260;20.746;2023-03-24T01:48:54;99685.20;;;7.20
69545;BMP180;56766;52.260;20.746;2023-03-24T01:51:39;99685.20;;;7.20
69545;BMP180;56766;52.260;20.746;2023-03-24T01:54:33;99682.20;;;7.20
69545;BMP180;56766;52.260;20.746;2023-03-24T01:57:20;99678.80;;;7.12
69545;BMP180;56766;52.260;20.746;2023-03-24T01:59:56;99671.00;;;7.10
69545;BMP180;56766;52.260;20.746;2023-03-24T02:02:25;99673.60;;;7.00
69545;BMP180;56766;52.260;20.746;2023-03-24T02:05:00;99673.20;;;7.00
69545;BMP180;56766;52.260;20.746;2023-03-24T02:10:35;99680.80;;;6.90
69545;BMP180;56766;52.260;20.746;2023-03-24T02:13:04;99683.80;;;6.80
69545;BMP180;56766;52.260;20.746;2023-03-24T02:15:51;99684.80;;;6.80
69545;BMP180;56766;52.260;20.746;2023-03-24T02:24:44;99678.00;;;6.56
69545;BMP180;56766;52.260;20.746;2023-03-24T02:37:05;99674.20;;;6.20
69545;BMP180;56766;52.260;20.746;2023-03-24T02:45:26;99667.60;;;6.10
69545;BMP180;56766;52.260;20.746;2023-03-24T02:54:10;99665.60;;;6.00
69545;BMP180;56766;52.260;20.746;2023-03-24T02:56:52;99668.80;;;6.00
69545;BMP180;56766;52.260;20.746;2023-03-24T03:02:27;99675.00;;;5.90
69545;BMP180;56766;52.260;20.746;2023-03-24T03:05:05;99674.00;;;5.90
69545;BMP180;56766;52.260;20.746;2023-03-24T03:07:36;99678.00;;;5.90
69545;BMP180;56766;52.260;20.746;2023-03-24T03:10:18;99676.80;;;5.80
69545;BMP180;56766;52.260;20.746;2023-03-24T03:12:54;99678.40;;;5.80
69545;BMP180;56766;52.260;20.746;2023-03-24T03:15:32;99681.60;;;5.80
69545;BMP180;56766;52.260;20.746;2023-03-24T03:18:23;99679.20;;;5.70
69545;BMP180;56766;52.260;20.746;2023-03-24T03:21:01;99683.40;;;5.70
69545;BMP180;56766;52.260;20.746;2023-03-24T03:23:37;99687.40;;;5.70
69545;BMP180;56766;52.260;20.746;2023-03-24T03:26:16;99686.80;;;5.70
69545;BMP180;56766;52.260;20.746;2023-03-24T03:28:51;99687.20;;;5.70
69545;BMP180;56766;52.260;20.746;2023-03-24T03:31:35;99686.40;;;5.70
69545;BMP180;56766;52.260;20.746;2023-03-24T03:34:18;99684.60;;;5.60
69545;BMP180;56766;52.260;20.746;2023-03-24T03:36:56;99677.40;;;5.60
69545;BMP180;56766;52.260;20.746;2023-03-24T03:39:32;99675.40;;;5.60
69545;BMP180;56766;52.260;20.746;2023-03-24T03:42:02;99677.60;;;5.60
69545;BMP180;56766;52.260;20.746;2023-03-24T03:44:30;99676.20;;;5.60
69545;BMP180;56766;52.260;20.746;2023-03-24T03:46:59;99670.00;;;5.60
69545;BMP180;56766;52.260;20.746;2023-03-24T03:49:26;99672.00;;;5.60
69545;BMP180;56766;52.260;20.746;2023-03-24T03:51:53;99671.40;;;5.60
69545;BMP180;56766;52.260;20.746;2023-03-24T03:54:25;99673.80;;;5.54
69545;BMP180;56766;52.260;20.746;2023-03-24T03:56:54;99672.80;;;5.54
69545;BMP180;56766;52.260;20.746;2023-03-24T03:59:42;99678.80;;;5.52
69545;BMP180;56766;52.260;20.746;2023-03-24T04:02:53;99675.00;;;5.50
69545;BMP180;56766;52.260;20.746;2023-03-24T04:05:46;99676.80;;;5.58
69545;BMP180;56766;52.260;20.746;2023-03-24T04:08:27;99677.40;;;5.60
69545;BMP180;56766;52.260;20.746;2023-03-24T04:20:19;99662.40;;;5.68
69545;BMP180;56766;52.260;20.746;2023-03-24T04:23:21;99659.20;;;5.70
69545;BMP180;56766;52.260;20.746;2023-03-24T04:29:19;99653.20;;;5.80
69545;BMP180;56766;52.260;20.746;2023-03-24T04:32:25;99639.40;;;5.80
69545;BMP180;56766;52.260;20.746;2023-03-24T04:35:09;99643.60;;;5.80
69545;BMP180;56766;52.260;20.746;2023-03-24T04:37:38;99645.40;;;5.80
69545;BMP180;56766;52.260;20.746;2023-03-24T04:40:10;99638.60;;;5.80
69545;BMP180;56766;52.260;20.746;2023-03-24T04:42:51;99636.20;;;5.80
69545;BMP180;56766;52.260;20.746;2023-03-24T04:45:20;99637.40;;;5.82
69545;BMP180;56766;52.260;20.746;2023-03-24T04:48:03;99634.00;;;5.90
69545;BMP180;56766;52.260;20.746;2023-03-24T04:50:38;99634.60;;;5.90
69545;BMP180;56766;52.260;20.746;2023-03-24T04:53:07;99631.20;;;5.90
69545;BMP180;56766;52.260;20.746;2023-03-24T04:58:22;99632.00;;;6.00
69545;BMP180;56766;52.260;20.746;2023-03-24T05:00:50;99626.40;;;6.08
69545;BMP180;56766;52.260;20.746;2023-03-24T05:03:18;99623.00;;;6.10
69545;BMP180;56766;52.260;20.746;2023-03-24T05:05:48;99628.00;;;6.10
69545;BMP180;56766;52.260;20.746;2023-03-24T05:08:16;99630.20;;;6.20
69545;BMP180;56766;52.260;20.746;2023-03-24T05:10:43;99625.20;;;6.30
69545;BMP180;56766;52.260;20.746;2023-03-24T05:13:12;99628.00;;;6.40
69545;BMP180;56766;52.260;20.746;2023-03-24T05:15:39;99631.40;;;6.50
69545;BMP180;56766;52.260;20.746;2023-03-24T05:18:07;99629.60;;;6.58
69545;BMP180;56766;52.260;20.746;2023-03-24T05:20:34;99624.60;;;6.66
69545;BMP180;56766;52.260;20.746;2023-03-24T05:23:01;99629.20;;;6.80
69545;BMP180;56766;52.260;20.746;2023-03-24T05:25:28;99626.60;;;6.90
69545;BMP180;56766;52.260;20.746;2023-03-24T05:27:55;99626.60;;;7.00
69545;BMP180;56766;52.260;20.746;2023-03-24T05:30:21;99609.40;;;7.10
69545;BMP180;56766;52.260;20.746;2023-03-24T05:32:48;99612.40;;;7.30
69545;BMP180;56766;52.260;20.746;2023-03-24T05:35:15;99602.60;;;7.40
69545;BMP180;56766;52.260;20.746;2023-03-24T05:37:42;99601.80;;;7.52
69545;BMP180;56766;52.260;20.746;2023-03-24T05:40:10;99598.80;;;7.70
69545;BMP180;56766;52.260;20.746;2023-03-24T05:42:36;99597.20;;;7.80
69545;BMP180;56766;52.260;20.746;2023-03-24T05:45:04;99599.80;;;7.90
69545;BMP180;56766;52.260;20.746;2023-03-24T05:47:31;99604.80;;;8.02
69545;BMP180;56766;52.260;20.746;2023-03-24T05:49:58;99606.40;;;8.14
69545;BMP180;56766;52.260;20.746;2023-03-24T05:52:25;99599.80;;;8.22
69545;BMP180;56766;52.260;20.746;2023-03-24T05:54:52;99601.60;;;8.30
69545;BMP180;56766;52.260;20.746;2023-03-24T05:57:19;99603.60;;;8.40
69545;BMP180;56766;52.260;20.746;2023-03-24T05:59:46;99608.00;;;8.52
69545;BMP180;56766;52.260;20.746;2023-03-24T06:02:13;99602.80;;;8.60
69545;BMP180;56766;52.260;20.746;2023-03-24T06:04:40;99598.60;;;8.70
69545;BMP180;56766;52.260;20.746;2023-03-24T06:07:12;99595.00;;;8.82
69545;BMP180;56766;52.260;20.746;2023-03-24T06:09:39;99596.00;;;8.98
69545;BMP180;56766;52.260;20.746;2023-03-24T06:12:13;99592.20;;;9.10
69545;BMP180;56766;52.260;20.746;2023-03-24T06:14:39;99593.80;;;9.22
69545;BMP180;56766;52.260;20.746;2023-03-24T06:17:07;99598.20;;;9.40
69545;BMP180;56766;52.260;20.746;2023-03-24T06:19:33;99592.80;;;9.50
69545;BMP180;56766;52.260;20.746;2023-03-24T06:22:03;99588.00;;;9.64
69545;BMP180;56766;52.260;20.746;2023-03-24T06:24:33;99587.40;;;9.80
69545;BMP180;56766;52.260;20.746;2023-03-24T06:26:59;99586.20;;;9.92
69545;BMP180;56766;52.260;20.746;2023-03-24T06:29:28;99586.80;;;10.10
69545;BMP180;56766;52.260;20.746;2023-03-24T06:31:56;99590.00;;;10.26
69545;BMP180;56766;52.260;20.746;2023-03-24T06:34:23;99599.60;;;10.40
69545;BMP180;56766;52.260;20.746;2023-03-24T06:36:51;99596.60;;;10.54
69545;BMP180;56766;52.260;20.746;2023-03-24T06:39:18;99595.00;;;10.68
69545;BMP180;56766;52.260;20.746;2023-03-24T06:41:44;99596.60;;;10.80
69545;BMP180;56766;52.260;20.746;2023-03-24T06:44:12;99587.20;;;10.90
69545;BMP180;56766;52.260;20.746;2023-03-24T06:46:38;99578.80;;;10.90
69545;BMP180;56766;52.260;20.746;2023-03-24T06:49:06;99583.20;;;11.00
69545;BMP180;56766;52.260;20.746;2023-03-24T06:51:33;99582.00;;;11.10
69545;BMP180;56766;52.260;20.746;2023-03-24T06:53:59;99587.80;;;11.20
69545;BMP180;56766;52.260;20.746;2023-03-24T06:56:26;99593.20;;;11.20
69545;BMP180;56766;52.260;20.746;2023-03-24T06:58:53;99591.20;;;11.30
69545;BMP180;56766;52.260;20.746;2023-03-24T07:01:21;99587.60;;;11.30
69545;BMP180;56766;52.260;20.746;2023-03-24T07:03:47;99589.20;;;11.40
69545;BMP180;56766;52.260;20.746;2023-03-24T07:06:15;99593.40;;;11.48
69545;BMP180;56766;52.260;20.746;2023-03-24T07:08:42;99598.80;;;11.50
69545;BMP180;56766;52.260;20.746;2023-03-24T07:11:10;99599.80;;;11.60
69545;BMP180;56766;52.260;20.746;2023-03-24T07:13:37;99601.20;;;11.70
69545;BMP180;56766;52.260;20.746;2023-03-24T07:16:04;99598.40;;;11.80
69545;BMP180;56766;52.260;20.746;2023-03-24T07:18:32;99595.80;;;11.82
69545;BMP180;56766;52.260;20.746;2023-03-24T07:20:58;99597.80;;;11.90
69545;BMP180;56766;52.260;20.746;2023-03-24T07:23:25;99596.00;;;12.00
69545;BMP180;56766;52.260;20.746;2023-03-24T07:25:53;99597.60;;;12.10
69545;BMP180;56766;52.260;20.746;2023-03-24T07:28:20;99599.20;;;12.22
69545;BMP180;56766;52.260;20.746;2023-03-24T07:30:47;99599.80;;;12.32
69545;BMP180;56766;52.260;20.746;2023-03-24T07:33:13;99596.00;;;12.46
69545;BMP180;56766;52.260;20.746;2023-03-24T07:35:41;99594.00;;;12.50
69545;BMP180;56766;52.260;20.746;2023-03-24T07:38:09;99587.80;;;12.60
69545;BMP180;56766;52.260;20.746;2023-03-24T07:40:36;99586.60;;;12.66
69545;BMP180;56766;52.260;20.746;2023-03-24T07:43:04;99590.40;;;12.70
69545;BMP180;56766;52.260;20.746;2023-03-24T07:45:32;99587.60;;;12.78
69545;BMP180;56766;52.260;20.746;2023-03-24T07:47:59;99582.20;;;12.80
69545;BMP180;56766;52.260;20.746;2023-03-24T07:50:29;99577.80;;;12.80
69545;BMP180;56766;52.260;20.746;2023-03-24T07:52:56;99581.80;;;12.90
69545;BMP180;56766;52.260;20.746;2023-03-24T07:55:23;99578.40;;;12.90
69545;BMP180;56766;52.260;20.746;2023-03-24T07:57:50;99577.20;;;13.00
69545;BMP180;56766;52.260;20.746;2023-03-24T08:00:18;99572.80;;;13.10
69545;BMP180;56766;52.260;20.746;2023-03-24T08:02:50;99563.00;;;13.20
69545;BMP180;56766;52.260;20.746;2023-03-24T08:05:20;99552.40;;;13.30
69545;BMP180;56766;52.260;20.746;2023-03-24T08:07:50;99555.60;;;13.40
69545;BMP180;56766;52.260;20.746;2023-03-24T08:10:25;99552.40;;;13.50
69545;BMP180;56766;52.260;20.746;2023-03-24T08:12:54;99546.20;;;13.50
69545;BMP180;56766;52.260;20.746;2023-03-24T08:15:21;99550.20;;;13.60
69545;BMP180;56766;52.260;20.746;2023-03-24T08:17:49;99550.60;;;13.68
69545;BMP180;56766;52.260;20.746;2023-03-24T08:20:18;99543.80;;;13.74
69545;BMP180;56766;52.260;20.746;2023-03-24T08:22:49;99544.20;;;13.80
69545;BMP180;56766;52.260;20.746;2023-03-24T08:25:19;99539.40;;;13.90
69545;BMP180;56766;52.260;20.746;2023-03-24T08:27:46;99531.00;;;13.92
69545;BMP180;56766;52.260;20.746;2023-03-24T08:30:21;99528.60;;;14.06
69545;BMP180;56766;52.260;20.746;2023-03-24T08:33:01;99515.20;;;14.10
69545;BMP180;56766;52.260;20.746;2023-03-24T08:35:32;99510.40;;;14.20
69545;BMP180;56766;52.260;20.746;2023-03-24T08:38:00;99503.60;;;14.20
69545;BMP180;56766;52.260;20.746;2023-03-24T08:40:29;99499.00;;;14.10
69545;BMP180;56766;52.260;20.746;2023-03-24T08:43:01;99499.00;;;14.00
69545;BMP180;56766;52.260;20.746;2023-03-24T08:45:31;99496.80;;;13.90
69545;BMP180;56766;52.260;20.746;2023-03-24T08:48:02;99489.80;;;13.90
69545;BMP180;56766;52.260;20.746;2023-03-24T08:50:34;99482.00;;;13.90
69545;BMP180;56766;52.260;20.746;2023-03-24T08:53:03;99477.00;;;13.94
69545;BMP180;56766;52.260;20.746;2023-03-24T08:55:30;99475.80;;;14.18
69545;BMP180;56766;52.260;20.746;2023-03-24T08:57:57;99476.40;;;14.48
69545;BMP180;56766;52.260;20.746;2023-03-24T09:00:24;99471.40;;;14.76
69545;BMP180;56766;52.260;20.746;2023-03-24T09:02:54;99465.40;;;15.00
69545;BMP180;56766;52.260;20.746;2023-03-24T09:05:23;99458.80;;;15.28
69545;BMP180;56766;52.260;20.746;2023-03-24T09:07:50;99455.60;;;15.58
69545;BMP180;56766;52.260;20.746;2023-03-24T09:10:19;99447.40;;;15.90
69545;BMP180;56766;52.260;20.746;2023-03-24T09:12:48;99443.20;;;16.30
69545;BMP180;56766;52.260;20.746;2023-03-24T09:15:14;99435.80;;;16.70
69545;BMP180;56766;52.260;20.746;2023-03-24T09:17:41;99436.00;;;17.00
69545;BMP180;56766;52.260;20.746;2023-03-24T09:20:13;99440.80;;;17.30
69545;BMP180;56766;52.260;20.746;2023-03-24T09:22:44;99427.20;;;17.56
69545;BMP180;56766;52.260;20.746;2023-03-24T09:25:18;99421.00;;;17.80
69545;BMP180;56766;52.260;20.746;2023-03-24T09:27:46;99418.20;;;17.96
69545;BMP180;56766;52.260;20.746;2023-03-24T09:30:16;99414.20;;;18.00
69545;BMP180;56766;52.260;20.746;2023-03-24T09:32:44;99414.00;;;18.00
69545;BMP180;56766;52.260;20.746;2023-03-24T09:35:12;99416.00;;;18.14
69545;BMP180;56766;52.260;20.746;2023-03-24T09:37:41;99408.40;;;18.30
69545;BMP180;56766;52.260;20.746;2023-03-24T09:40:24;99409.00;;;18.30
69545;BMP180;56766;52.260;20.746;2023-03-24T09:43:01;99408.20;;;18.30
69545;BMP180;56766;52.260;20.746;2023-03-24T09:45:36;99404.40;;;18.30
69545;BMP180;56766;52.260;20.746;2023-03-24T09:48:37;99399.00;;;18.30
69545;BMP180;56766;52.260;20.746;2023-03-24T09:51:25;99392.60;;;18.30
69545;BMP180;56766;52.260;20.746;2023-03-24T09:54:13;99392.00;;;18.40
69545;BMP180;56766;52.260;20.746;2023-03-24T09:56:46;99390.20;;;18.44
69545;BMP180;56766;52.260;20.746;2023-03-24T09:59:35;99386.80;;;18.34
69545;BMP180;56766;52.260;20.746;2023-03-24T10:02:19;99380.40;;;18.10
69545;BMP180;56766;52.260;20.746;2023-03-24T10:04:48;99376.40;;;18.00
69545;BMP180;56766;52.260;20.746;2023-03-24T10:07:38;99382.40;;;17.80
69545;BMP180;56766;52.260;20.746;2023-03-24T10:10:34;99386.80;;;17.60
69545;BMP180;56766;52.260;20.746;2023-03-24T10:13:08;99377.40;;;17.40
69545;BMP180;56766;52.260;20.746;2023-03-24T10:16:01;99377.60;;;17.30
69545;BMP180;56766;52.260;20.746;2023-03-24T10:21:56;99360.80;;;16.90
69545;BMP180;56766;52.260;20.746;2023-03-24T10:27:57;99355.00;;;16.80
69545;BMP180;56766;52.260;20.746;2023-03-24T10:30:41;99360.60;;;16.80
69545;BMP180;56766;52.260;20.746;2023-03-24T10:33:11;99358.20;;;16.90
69545;BMP180;56766;52.260;20.746;2023-03-24T10:36:05;99352.80;;;16.90
69545;BMP180;56766;52.260;20.746;2023-03-24T10:38:34;99347.40;;;16.92
69545;BMP180;56766;52.260;20.746;2023-03-24T10:41:01;99349.80;;;17.00
69545;BMP180;56766;52.260;20.746;2023-03-24T10:43:30;99353.00;;;17.10
69545;BMP180;56766;52.260;20.746;2023-03-24T10:46:00;99351.60;;;17.08
69545;BMP180;56766;52.260;20.746;2023-03-24T10:48:41;99352.40;;;17.10
69545;BMP180;56766;52.260;20.746;2023-03-24T10:51:17;99350.20;;;17.20
69545;BMP180;56766;52.260;20.746;2023-03-24T10:53:46;99357.20;;;17.30
69545;BMP180;56766;52.260;20.746;2023-03-24T10:56:39;99354.20;;;17.40
69545;BMP180;56766;52.260;20.746;2023-03-24T10:59:22;99359.60;;;17.40
69545;BMP180;56766;52.260;20.746;2023-03-24T11:04:40;99363.40;;;17.30
69545;BMP180;56766;52.260;20.746;2023-03-24T11:07:22;99362.00;;;17.16
69545;BMP180;56766;52.260;20.746;2023-03-24T11:13:01;99351.00;;;16.90
69545;BMP180;56766;52.260;20.746;2023-03-24T11:15:34;99344.60;;;16.70
69545;BMP180;56766;52.260;20.746;2023-03-24T11:20:45;99339.00;;;16.50
69545;BMP180;56766;52.260;20.746;2023-03-24T11:23:38;99343.40;;;16.40
69545;BMP180;56766;52.260;20.746;2023-03-24T11:26:19;99337.20;;;16.40
69545;BMP180;56766;52.260;20.746;2023-03-24T11:28:59;99336.80;;;16.34
69545;BMP180;56766;52.260;20.746;2023-03-24T11:31:30;99332.80;;;16.40
69545;BMP180;56766;52.260;20.746;2023-03-24T11:34:07;99333.20;;;16.42
69545;BMP180;56766;52.260;20.746;2023-03-24T11:36:52;99323.60;;;16.58
69545;BMP180;56766;52.260;20.746;2023-03-24T11:39:24;99318.00;;;16.74
69545;BMP180;56766;52.260;20.746;2023-03-24T11:42:12;99307.40;;;16.90
69545;BMP180;56766;52.260;20.746;2023-03-24T11:44:49;99308.40;;;16.92
69545;BMP180;56766;52.260;20.746;2023-03-24T11:47:57;99301.80;;;17.00
69545;BMP180;56766;52.260;20.746;2023-03-24T11:50:35;99298.20;;;17.00
69545;BMP180;56766;52.260;20.746;2023-03-24T11:53:21;99289.20;;;17.10
69545;BMP180;56766;52.260;20.746;2023-03-24T11:56:02;99290.60;;;17.10
69545;BMP180;56766;52.260;20.746;2023-03-24T11:58:46;99292.60;;;17.10
69545;BMP180;56766;52.260;20.746;2023-03-24T12:06:41;99280.60;;;17.40
69545;BMP180;56766;52.260;20.746;2023-03-24T12:25:38;99248.00;;;19.20
69545;BMP180;56766;52.260;20.746;2023-03-24T12:30:55;99237.20;;;19.40
69545;BMP180;56766;52.260;20.746;2023-03-24T12:33:51;99236.40;;;19.50
69545;BMP180;56766;52.260;20.746;2023-03-24T12:36:48;99225.20;;;19.60
69545;BMP180;56766;52.260;20.746;2023-03-24T12:39:33;99216.20;;;19.70
69545;BMP180;56766;52.260;20.746;2023-03-24T12:56:15;99211.60;;;19.40
69545;BMP180;56766;52.260;20.746;2023-03-24T12:58:49;99212.00;;;19.40
69545;BMP180;56766;52.260;20.746;2023-03-24T13:02:01;99207.80;;;19.50
69545;BMP180;56766;52.260;20.746;2023-03-24T13:04:38;99205.00;;;19.50
69545;BMP180;56766;52.260;20.746;2023-03-24T13:07:17;99194.20;;;19.50
69545;BMP180;56766;52.260;20.746;2023-03-24T13:10:12;99189.80;;;19.50
69545;BMP180;56766;52.260;20.746;2023-03-24T13:12:54;99188.60;;;19.50
69545;BMP180;56766;52.260;20.746;2023-03-24T13:18:47;99185.40;;;19.74
69545;BMP180;56766;52.260;20.746;2023-03-24T13:21:21;99184.40;;;19.80
69545;BMP180;56766;52.260;20.746;2023-03-24T13:24:12;99175.80;;;19.80
69545;BMP180;56766;52.260;20.746;2023-03-24T13:35:00;99160.80;;;19.78
69545;BMP180;56766;52.260;20.746;2023-03-24T13:37:41;99149.00;;;19.70
69545;BMP180;56766;52.260;20.746;2023-03-24T13:40:22;99148.40;;;19.80
69545;BMP180;56766;52.260;20.746;2023-03-24T13:42:57;99149.80;;;19.80
69545;BMP180;56766;52.260;20.746;2023-03-24T13:45:45;99149.40;;;19.80
69545;BMP180;56766;52.260;20.746;2023-03-24T13:48:35;99145.00;;;19.70
69545;BMP180;56766;52.260;20.746;2023-03-24T13:51:12;99143.60;;;19.70
69545;BMP180;56766;52.260;20.746;2023-03-24T13:53:57;99140.60;;;19.70
69545;BMP180;56766;52.260;20.746;2023-03-24T13:56:44;99138.40;;;19.70
69545;BMP180;56766;52.260;20.746;2023-03-24T14:02:49;99135.40;;;19.80
69545;BMP180;56766;52.260;20.746;2023-03-24T14:05:58;99139.00;;;19.78
69545;BMP180;56766;52.260;20.746;2023-03-24T14:14:24;99131.00;;;19.40
69545;BMP180;56766;52.260;20.746;2023-03-24T14:19:41;99128.00;;;19.10
69545;BMP180;56766;52.260;20.746;2023-03-24T14:22:21;99123.20;;;19.10
69545;BMP180;56766;52.260;20.746;2023-03-24T14:25:05;99117.60;;;19.00
69545;BMP180;56766;52.260;20.746;2023-03-24T14:27:47;99113.20;;;19.00
69545;BMP180;56766;52.260;20.746;2023-03-24T14:30:27;99110.20;;;18.90
69545;BMP180;56766;52.260;20.746;2023-03-24T14:33:04;99102.00;;;18.90
69545;BMP180;56766;52.260;20.746;2023-03-24T14:35:43;99104.00;;;18.90
69545;BMP180;56766;52.260;20.746;2023-03-24T14:40:54;99100.20;;;18.76
69545;BMP180;56766;52.260;20.746;2023-03-24T14:49:14;99096.00;;;18.50
69545;BMP180;56766;52.260;20.746;2023-03-24T14:51:56;99092.00;;;18.32
69545;BMP180;56766;52.260;20.746;2023-03-24T14:54:53;99084.00;;;18.20
69545;BMP180;56766;52.260;20.746;2023-03-24T14:57:34;99080.40;;;18.20
69545;BMP180;56766;52.260;20.746;2023-03-24T15:00:33;99078.00;;;18.14
69545;BMP180;56766;52.260;20.746;2023-03-24T15:03:27;99073.20;;;18.10
69545;BMP180;56766;52.260;20.746;2023-03-24T15:06:22;99073.60;;;17.92
69545;BMP180;56766;52.260;20.746;2023-03-24T15:08:53;99072.40;;;17.80
69545;BMP180;56766;52.260;20.746;2023-03-24T15:11:32;99065.00;;;17.70
69545;BMP180;56766;52.260;20.746;2023-03-24T15:14:04;99066.00;;;17.60
69545;BMP180;56766;52.260;20.746;2023-03-24T15:16:35;99066.20;;;17.50
69545;BMP180;56766;52.260;20.746;2023-03-24T15:19:23;99063.80;;;17.40
69545;BMP180;56766;52.260;20.746;2023-03-24T15:22:10;99053.00;;;17.28
69545;BMP180;56766;52.260;20.746;2023-03-24T15:24:42;99053.60;;;17.16
69545;BMP180;56766;52.260;20.746;2023-03-24T15:27:24;99051.00;;;17.10
69545;BMP180;56766;52.260;20.746;2023-03-24T15:29:56;99048.20;;;17.00
69545;BMP180;56766;52.260;20.746;2023-03-24T15:32:27;99043.00;;;17.00
69545;BMP180;56766;52.260;20.746;2023-03-24T15:35:02;99054.20;;;16.92
69545;BMP180;56766;52.260;20.746;2023-03-24T15:37:40;99045.60;;;16.90
69545;BMP180;56766;52.260;20.746;2023-03-24T15:43:00;99038.60;;;16.70
69545;BMP180;56766;52.260;20.746;2023-03-24T15:45:36;99036.00;;;16.62
69545;BMP180;56766;52.260;20.746;2023-03-24T15:48:18;99033.60;;;16.56
69545;BMP180;56766;52.260;20.746;2023-03-24T15:51:00;99036.60;;;16.50
69545;BMP180;56766;52.260;20.746;2023-03-24T15:53:41;99035.40;;;16.40
69545;BMP180;56766;52.260;20.746;2023-03-24T15:56:29;99033.60;;;16.38
69545;BMP180;56766;52.260;20.746;2023-03-24T16:01:29;99026.60;;;16.20
69545;BMP180;56766;52.260;20.746;2023-03-24T16:04:05;99026.80;;;16.20
69545;BMP180;56766;52.260;20.746;2023-03-24T16:06:35;99027.40;;;16.10
69545;BMP180;56766;52.260;20.746;2023-03-24T16:09:12;99019.60;;;16.00
69545;BMP180;56766;52.260;20.746;2023-03-24T16:11:40;99015.60;;;16.00
69545;BMP180;56766;52.260;20.746;2023-03-24T16:14:27;99016.40;;;15.90
69545;BMP180;56766;52.260;20.746;2023-03-24T16:16:57;99017.00;;;15.90
69545;BMP180;56766;52.260;20.746;2023-03-24T16:19:25;99014.80;;;15.80
69545;BMP180;56766;52.260;20.746;2023-03-24T16:21:52;99018.00;;;15.80
69545;BMP180;56766;52.260;20.746;2023-03-24T16:24:20;99018.60;;;15.70
69545;BMP180;56766;52.260;20.746;2023-03-24T16:26:47;99037.00;;;15.70
69545;BMP180;56766;52.260;20.746;2023-03-24T16:29:19;99071.60;;;15.60
69545;BMP180;56766;52.260;20.746;2023-03-24T16:31:51;99085.40;;;15.60
69545;BMP180;56766;52.260;20.746;2023-03-24T16:34:20;99106.60;;;15.46
69545;BMP180;56766;52.260;20.746;2023-03-24T16:36:50;99118.20;;;15.22
69545;BMP180;56766;52.260;20.746;2023-03-24T16:39:28;99107.00;;;15.00
69545;BMP180;56766;52.260;20.746;2023-03-24T16:41:55;99111.20;;;14.70
69545;BMP180;56766;52.260;20.746;2023-03-24T16:44:23;99117.60;;;14.50
69545;BMP180;56766;52.260;20.746;2023-03-24T16:46:52;99120.40;;;14.30
69545;BMP180;56766;52.260;20.746;2023-03-24T16:49:21;99119.00;;;14.20
69545;BMP180;56766;52.260;20.746;2023-03-24T16:51:49;99121.80;;;14.10
69545;BMP180;56766;52.260;20.746;2023-03-24T16:54:18;99127.40;;;13.90
69545;BMP180;56766;52.260;20.746;2023-03-24T16:56:46;99132.20;;;13.80
69545;BMP180;56766;52.260;20.746;2023-03-24T16:59:13;99138.00;;;13.70
69545;BMP180;56766;52.260;20.746;2023-03-24T17:01:44;99146.00;;;13.64